Oakland, California
Current Conditions -  °F | °C
As of 6:35 PM on Thursday 20 Nov 2014 (Local Time) from KOAK Reporting Station
Moderate Rain Moderate Rain  
Wind Chill: 13°   Ceiling: 2600
Heat Index: 13°   Visibility: 6mi
Dew Point: 12°   Wind: 13mph
Humidity: 94%   Direction: 70°ENE
Pressure: 30.01"   Gusts: NA
Location:  37.81°N, 122.27°W
Report Text: KOAK 210235Z 07011KT 6SM RA BR SCT019 BKN026 OVC033 13/12 A3001 RMK AO2 RAB10 P0004
Loading
Personal Weather Stations






























Interactive Weather Map New forecast layout! Learn more

10-Day Weather Forecast

Advertisements
Track Severe Weather on mobile